Main page
METAR-TAF:

METAR-TAF

Airports :

Visby Airport

Visby, Gotland, Sweden

latitude: 57-40N, longitude: 018-21E, elevation: 51 m

Current weather observation

The report was made 35 minutes ago, at 09:20 UTC
Wind 7 kt from the West
Temperature 18°C
Humidity 88%
Pressure 1015 hPa
Visibility 10 km or more
Scattered clouds at a height of 500 ft

METAR: ESSV 120920Z 28007KT 9999 SCT005 18/16 Q1015

Time: 11:55 (09:55 UTC)

Forecast

The report was made 1 hour and 23 minutes ago, at 08:32 UTC
Forecast valid from 12 at 09 UTC to 12 at 18 UTC
Wind 9 kt from the West/Southwest
Visibility 10 km or more
Broken clouds at a height of 400 ft
Becoming
from 12 at 09 UTC to 12 at 11 UTC

TAF: ESSV 120832Z 1209/1218 25009KT 9999 BKN004 BECMG 1209/1211 NSC

Weather observations and forecasts of more than 4000 airports (METAR and TAF reports).

The available stations are represented by yellow and red dots on the map.

Hover mouse over dot to see the name of the station.

Then click to see weather observations and forecasts.

To change the map : click on the green buttons with a black cross to zoom in, on the green button with a dash to zoom out, or on the green arrows for adjacent maps.


METAR-TAF: